createdAt,value
2022-08-30T00:00:59.762Z,16.90
2022-08-30T00:03:27.526Z,16.90
2022-08-30T00:05:56.359Z,17.00
2022-08-30T00:08:23.421Z,16.90
2022-08-30T00:10:51.288Z,16.90
2022-08-30T00:13:18.753Z,17.10
2022-08-30T00:15:45.850Z,17.00
2022-08-30T00:18:12.781Z,16.80
2022-08-30T00:20:39.681Z,16.80
2022-08-30T00:23:06.614Z,16.80
2022-08-30T00:25:33.546Z,16.80
2022-08-30T00:28:00.457Z,16.70
2022-08-30T00:30:27.307Z,17.00
2022-08-30T00:32:54.190Z,16.80
2022-08-30T00:35:21.102Z,16.70
2022-08-30T00:37:48.544Z,16.60
2022-08-30T00:40:16.102Z,16.40
2022-08-30T00:42:43.777Z,16.70
2022-08-30T00:45:21.975Z,16.60
2022-08-30T00:47:48.797Z,16.60
2022-08-30T00:50:16.732Z,16.60
2022-08-30T00:52:45.407Z,16.60
2022-08-30T00:55:14.244Z,16.60
2022-08-30T00:57:45.031Z,16.70
2022-08-30T01:00:13.242Z,16.50
2022-08-30T01:02:40.138Z,16.50
2022-08-30T01:05:08.548Z,16.60
2022-08-30T01:07:35.448Z,16.50
2022-08-30T01:10:02.679Z,16.50
2022-08-30T01:12:30.132Z,16.40
2022-08-30T01:14:58.117Z,16.40
2022-08-30T01:17:25.669Z,16.40
2022-08-30T01:20:00.824Z,16.40
2022-08-30T01:22:45.010Z,16.40
2022-08-30T01:25:15.020Z,16.30
2022-08-30T01:27:44.511Z,16.40
2022-08-30T01:30:11.896Z,16.60
2022-08-30T01:32:44.640Z,16.30
2022-08-30T01:35:12.720Z,16.30
2022-08-30T01:37:39.576Z,16.20
2022-08-30T01:40:07.406Z,16.20
2022-08-30T01:42:34.903Z,16.20
2022-08-30T01:45:01.768Z,16.40
2022-08-30T01:47:28.602Z,16.20
2022-08-30T01:54:23.069Z,16.20
2022-08-30T01:56:54.224Z,16.20
2022-08-30T01:59:21.066Z,18.10
2022-08-30T02:01:47.879Z,16.20
2022-08-30T02:04:14.904Z,16.30
2022-08-30T02:06:41.990Z,16.10
2022-08-30T02:09:08.787Z,16.10
2022-08-30T02:11:35.722Z,16.90
2022-08-30T02:14:02.683Z,16.10
2022-08-30T02:16:29.668Z,16.10
2022-08-30T02:18:57.264Z,16.40
2022-08-30T02:21:24.828Z,16.80
2022-08-30T02:23:52.081Z,16.00
2022-08-30T02:26:19.196Z,16.00
2022-08-30T02:28:49.629Z,16.10
2022-08-30T02:31:20.448Z,17.70
2022-08-30T02:33:48.809Z,16.00
2022-08-30T02:36:15.693Z,16.00
2022-08-30T02:38:42.559Z,16.00
2022-08-30T02:41:09.369Z,16.00
2022-08-30T02:43:36.176Z,15.90
2022-08-30T02:46:03.071Z,15.90
2022-08-30T02:48:29.903Z,15.90
2022-08-30T02:50:56.904Z,15.90
2022-08-30T02:53:23.861Z,15.90
2022-08-30T02:55:53.054Z,15.90
2022-08-30T02:58:19.866Z,15.90
2022-08-30T03:00:46.725Z,16.00
2022-08-30T03:03:13.631Z,15.90
2022-08-30T03:05:40.643Z,15.90
2022-08-30T03:08:09.348Z,16.40
2022-08-30T03:10:36.367Z,15.90
2022-08-30T03:13:03.505Z,16.00
2022-08-30T03:15:30.334Z,15.90
2022-08-30T03:17:57.174Z,15.90
2022-08-30T03:20:24.522Z,15.90
2022-08-30T03:22:51.516Z,15.90
2022-08-30T03:29:51.011Z,15.90
2022-08-30T03:32:18.119Z,18.00
2022-08-30T03:34:44.982Z,16.20
2022-08-30T03:37:11.880Z,16.50
2022-08-30T03:39:38.826Z,16.70
2022-08-30T03:42:05.828Z,15.90
2022-08-30T03:44:32.725Z,15.90
2022-08-30T03:46:59.555Z,16.00
2022-08-30T03:49:26.378Z,15.80
2022-08-30T03:51:53.173Z,16.40
2022-08-30T03:54:20.055Z,15.80
2022-08-30T03:56:46.881Z,15.80
2022-08-30T03:59:13.881Z,15.80
2022-08-30T04:01:42.073Z,15.80
2022-08-30T04:04:09.134Z,16.70
2022-08-30T04:06:35.936Z,15.70
2022-08-30T04:09:02.796Z,17.50
2022-08-30T04:11:29.582Z,15.70
2022-08-30T04:13:56.856Z,15.80
2022-08-30T04:16:24.341Z,15.70
2022-08-30T04:18:51.180Z,16.30
2022-08-30T04:21:18.215Z,15.70
2022-08-30T04:23:45.181Z,15.70
2022-08-30T04:26:12.023Z,15.70
2022-08-30T04:28:38.821Z,16.90
2022-08-30T04:31:13.327Z,15.80
2022-08-30T04:33:42.213Z,15.70
2022-08-30T04:36:09.404Z,16.10
2022-08-30T04:38:36.782Z,15.80
2022-08-30T04:41:06.225Z,15.70
2022-08-30T04:43:33.426Z,15.70
2022-08-30T04:46:00.425Z,15.70
2022-08-30T04:48:27.261Z,15.70
2022-08-30T04:50:54.231Z,16.50
2022-08-30T04:53:21.081Z,16.90
2022-08-30T04:55:47.902Z,15.70
2022-08-30T04:58:15.051Z,15.70
2022-08-30T05:00:43.808Z,16.80
2022-08-30T05:03:10.726Z,15.70
2022-08-30T05:05:40.317Z,16.30
2022-08-30T05:08:08.511Z,15.70
2022-08-30T05:10:39.165Z,15.70
2022-08-30T05:13:06.019Z,18.20
2022-08-30T05:15:33.090Z,15.70
2022-08-30T05:18:00.136Z,17.90
2022-08-30T05:20:27.114Z,15.80
2022-08-30T05:22:54.270Z,15.80
2022-08-30T05:25:27.993Z,16.20
2022-08-30T05:27:55.025Z,18.30
2022-08-30T05:30:23.624Z,15.90
2022-08-30T05:32:53.716Z,16.00
2022-08-30T05:35:25.802Z,16.00
2022-08-30T05:37:53.961Z,15.90
2022-08-30T05:40:22.138Z,15.90
2022-08-30T05:42:49.684Z,15.90
2022-08-30T05:45:17.308Z,16.00
2022-08-30T05:47:44.587Z,16.00
2022-08-30T05:50:11.536Z,17.40
2022-08-30T05:52:39.365Z,16.20
2022-08-30T05:55:07.804Z,14.60
2022-08-30T05:57:35.819Z,16.20
2022-08-30T06:00:06.544Z,16.20
2022-08-30T06:02:39.707Z,16.30
2022-08-30T06:05:07.096Z,18.10
2022-08-30T06:07:34.842Z,16.40
2022-08-30T06:10:02.168Z,16.30
2022-08-30T06:12:29.187Z,16.30
2022-08-30T06:14:56.203Z,16.60
2022-08-30T06:17:23.093Z,16.90
2022-08-30T06:19:50.055Z,17.00
2022-08-30T06:22:16.977Z,16.70
2022-08-30T06:24:56.936Z,16.90
2022-08-30T06:27:24.726Z,17.10
2022-08-30T06:29:52.538Z,17.20
2022-08-30T06:32:19.654Z,17.40
2022-08-30T06:34:46.776Z,17.50
2022-08-30T06:37:21.994Z,17.70
2022-08-30T06:40:00.500Z,17.90
2022-08-30T06:42:32.156Z,18.00
2022-08-30T06:45:02.190Z,18.00
2022-08-30T06:47:42.758Z,18.10
2022-08-30T06:50:22.645Z,16.00
2022-08-30T06:52:49.609Z,18.30
2022-08-30T06:55:16.911Z,18.30
2022-08-30T06:57:44.237Z,18.30
2022-08-30T07:00:13.555Z,18.40
2022-08-30T07:02:40.796Z,18.60
2022-08-30T07:05:08.354Z,18.70
2022-08-30T07:07:35.707Z,18.90
2022-08-30T07:10:07.170Z,19.00
2022-08-30T07:12:36.118Z,19.20
2022-08-30T07:15:04.757Z,19.30
2022-08-30T07:17:50.127Z,18.80
2022-08-30T07:20:18.362Z,19.50
2022-08-30T07:22:46.455Z,19.80
2022-08-30T07:25:13.861Z,19.80
2022-08-30T07:27:40.943Z,19.90
2022-08-30T07:30:08.369Z,20.00
2022-08-30T07:32:38.499Z,20.10
2022-08-30T07:35:05.907Z,20.30
2022-08-30T07:37:32.787Z,20.30
2022-08-30T07:39:59.737Z,20.40
2022-08-30T07:42:26.637Z,20.50
2022-08-30T07:44:56.605Z,20.50
2022-08-30T07:47:23.934Z,20.60
2022-08-30T07:49:51.014Z,20.60
2022-08-30T07:52:17.978Z,20.90
2022-08-30T07:54:44.881Z,21.10
2022-08-30T07:57:12.615Z,21.20
2022-08-30T07:59:43.272Z,21.40
2022-08-30T08:02:10.164Z,21.50
2022-08-30T08:04:37.337Z,21.60
2022-08-30T08:07:04.216Z,21.70
2022-08-30T08:09:31.107Z,21.80
2022-08-30T08:11:57.995Z,21.80
2022-08-30T08:14:24.953Z,21.90
2022-08-30T08:16:52.028Z,22.00
2022-08-30T08:19:19.674Z,22.20
2022-08-30T08:21:46.539Z,22.30
2022-08-30T08:24:13.627Z,22.40
2022-08-30T08:26:41.019Z,22.50
2022-08-30T08:29:12.251Z,22.60
2022-08-30T08:31:41.442Z,22.80
2022-08-30T08:34:08.518Z,23.00
2022-08-30T08:36:35.731Z,23.10
2022-08-30T08:39:03.455Z,23.20
2022-08-30T08:41:39.676Z,23.20
2022-08-30T08:44:09.400Z,23.10
2022-08-30T08:47:03.849Z,23.10
2022-08-30T08:49:30.707Z,23.10
2022-08-30T08:52:16.878Z,23.10
2022-08-30T08:54:52.782Z,23.20
2022-08-30T08:57:24.532Z,23.30
2022-08-30T08:59:54.524Z,23.40
2022-08-30T09:02:26.682Z,23.50
2022-08-30T09:04:56.330Z,23.60
2022-08-30T09:07:30.110Z,23.80
2022-08-30T09:09:57.901Z,23.80
2022-08-30T09:12:25.139Z,23.80
2022-08-30T09:14:55.637Z,23.70
2022-08-30T09:17:26.106Z,23.60
2022-08-30T09:19:53.128Z,23.60
2022-08-30T09:22:39.728Z,23.60
2022-08-30T09:25:24.025Z,23.70
2022-08-30T09:27:52.212Z,23.90
2022-08-30T09:30:25.338Z,24.00
2022-08-30T09:33:05.441Z,24.20
2022-08-30T09:35:43.869Z,26.40
2022-08-30T09:38:13.104Z,24.60
2022-08-30T09:40:43.336Z,24.80
2022-08-30T09:43:12.012Z,25.00
2022-08-30T09:45:44.188Z,25.10
2022-08-30T09:48:37.273Z,25.20
2022-08-30T09:51:10.442Z,25.30
2022-08-30T09:54:16.749Z,25.50
2022-08-30T09:57:12.626Z,25.70
2022-08-30T10:00:07.101Z,26.00
2022-08-30T10:02:36.994Z,26.10
2022-08-30T10:05:34.265Z,26.30
2022-08-30T10:08:20.026Z,26.40
2022-08-30T10:10:56.288Z,26.50
2022-08-30T10:13:36.137Z,26.50
2022-08-30T10:16:11.950Z,26.60
2022-08-30T10:19:07.685Z,26.60
2022-08-30T10:21:37.683Z,26.60
2022-08-30T10:24:10.153Z,25.70
2022-08-30T10:26:53.026Z,26.60
2022-08-30T10:29:24.171Z,26.60
2022-08-30T10:32:12.913Z,26.70
2022-08-30T10:34:56.767Z,26.70
2022-08-30T10:37:26.095Z,26.70
2022-08-30T10:40:00.744Z,26.70
2022-08-30T10:42:33.823Z,26.80
2022-08-30T10:45:05.527Z,26.80
2022-08-30T10:47:35.162Z,26.70
2022-08-30T10:50:11.244Z,26.70
2022-08-30T10:52:47.534Z,26.80
2022-08-30T10:55:36.452Z,26.80
2022-08-30T10:58:04.633Z,26.90
2022-08-30T11:00:37.737Z,27.00
2022-08-30T11:03:43.246Z,27.00
2022-08-30T11:06:32.459Z,27.10
2022-08-30T11:09:29.894Z,27.20
2022-08-30T11:12:31.111Z,27.40
2022-08-30T11:14:59.320Z,27.50
2022-08-30T11:17:28.253Z,27.40
2022-08-30T11:19:57.366Z,27.40
2022-08-30T11:22:30.068Z,27.30
2022-08-30T11:25:14.758Z,27.30
2022-08-30T11:27:56.505Z,27.20
2022-08-30T11:30:27.527Z,27.20
2022-08-30T11:33:09.845Z,27.10
2022-08-30T11:35:37.143Z,27.00
2022-08-30T11:38:26.040Z,26.80
2022-08-30T11:45:26.773Z,26.80
2022-08-30T11:47:56.719Z,27.00
2022-08-30T11:50:27.414Z,27.10
2022-08-30T11:53:01.860Z,27.30
2022-08-30T11:55:47.638Z,27.30
2022-08-30T11:58:37.867Z,27.30
2022-08-30T12:01:41.899Z,27.30
2022-08-30T12:04:15.432Z,27.40
2022-08-30T12:06:43.077Z,27.40
2022-08-30T12:09:35.758Z,27.40
2022-08-30T12:12:12.779Z,27.40
2022-08-30T12:14:54.720Z,27.50
2022-08-30T12:18:20.306Z,27.50
2022-08-30T12:20:48.609Z,27.60
2022-08-30T12:23:23.132Z,27.60
2022-08-30T12:25:50.194Z,27.60
2022-08-30T12:28:22.524Z,27.60
2022-08-30T12:30:49.536Z,27.60
2022-08-30T12:33:28.881Z,27.70
2022-08-30T12:35:59.274Z,27.70
2022-08-30T12:38:27.973Z,27.80
2022-08-30T12:40:57.951Z,27.80
2022-08-30T12:43:40.888Z,27.90
2022-08-30T12:46:11.542Z,27.90
2022-08-30T12:48:39.315Z,27.90
2022-08-30T12:55:33.919Z,27.80
2022-08-30T12:58:02.205Z,27.80
2022-08-30T13:00:42.960Z,27.80
2022-08-30T13:03:30.309Z,28.00
2022-08-30T13:05:57.746Z,27.30
2022-08-30T13:08:25.943Z,28.10
2022-08-30T13:11:08.249Z,28.10
2022-08-30T13:13:41.344Z,28.20
2022-08-30T13:16:20.863Z,28.20
2022-08-30T13:18:49.664Z,28.10
2022-08-30T13:21:34.025Z,28.20
2022-08-30T13:24:05.581Z,28.20
2022-08-30T13:26:34.196Z,28.20
2022-08-30T13:29:05.214Z,28.20
2022-08-30T13:31:37.550Z,28.30
2022-08-30T13:34:05.187Z,28.30
2022-08-30T13:36:34.651Z,28.30
2022-08-30T13:39:02.474Z,28.40
2022-08-30T13:41:34.567Z,28.40
2022-08-30T13:44:13.290Z,28.50
2022-08-30T13:46:42.687Z,28.60
2022-08-30T13:52:23.778Z,28.90
2022-08-30T13:54:54.663Z,29.00
2022-08-30T14:00:14.778Z,29.10
2022-08-30T14:02:46.666Z,29.30
2022-08-30T14:05:46.879Z,29.50
2022-08-30T14:08:05.057Z,29.70
2022-08-30T14:10:33.046Z,30.00
2022-08-30T14:13:08.525Z,30.30
2022-08-30T14:15:39.317Z,30.60
2022-08-30T14:18:06.985Z,30.90
2022-08-30T14:20:38.832Z,31.10
2022-08-30T14:23:09.926Z,31.10
2022-08-30T14:25:37.734Z,30.90
2022-08-30T14:28:08.269Z,30.70
2022-08-30T14:30:36.850Z,30.50
2022-08-30T14:33:03.992Z,30.30
2022-08-30T14:35:31.235Z,30.60
2022-08-30T14:37:58.589Z,29.90
2022-08-30T14:40:26.050Z,29.80
2022-08-30T14:42:53.003Z,29.60
2022-08-30T14:45:19.944Z,29.40
2022-08-30T14:47:47.184Z,29.30
2022-08-30T14:50:14.615Z,29.10
2022-08-30T14:52:41.515Z,29.00
2022-08-30T14:55:12.746Z,28.80
2022-08-30T14:57:40.606Z,28.70
2022-08-30T15:00:10.388Z,28.60
2022-08-30T15:02:40.798Z,28.50
2022-08-30T15:05:08.392Z,28.40
2022-08-30T15:07:36.031Z,28.40
2022-08-30T15:10:05.801Z,28.30
2022-08-30T15:12:32.943Z,28.20
2022-08-30T15:15:00.818Z,28.10
2022-08-30T15:17:28.594Z,28.00
2022-08-30T15:19:55.496Z,27.90
2022-08-30T15:22:22.625Z,27.70
2022-08-30T15:24:50.835Z,27.50
2022-08-30T15:27:18.020Z,27.30
2022-08-30T15:29:45.138Z,27.00
2022-08-30T15:32:12.053Z,26.90
2022-08-30T15:34:39.115Z,26.80
2022-08-30T15:37:06.260Z,26.70
2022-08-30T15:39:34.853Z,26.50
2022-08-30T15:42:01.984Z,26.40
2022-08-30T15:44:31.107Z,26.30
2022-08-30T15:46:58.251Z,26.10
2022-08-30T15:49:25.315Z,26.00
2022-08-30T15:51:53.963Z,25.90
2022-08-30T15:54:22.090Z,25.70
2022-08-30T15:56:48.955Z,25.60
2022-08-30T15:59:18.462Z,25.50
2022-08-30T16:01:47.713Z,25.50
2022-08-30T16:04:18.410Z,25.40
2022-08-30T16:06:45.755Z,25.30
2022-08-30T16:09:12.667Z,25.10
2022-08-30T16:11:39.634Z,25.00
2022-08-30T16:14:06.793Z,24.90
2022-08-30T16:16:37.593Z,26.20
2022-08-30T16:19:04.931Z,24.70
2022-08-30T16:21:32.606Z,24.60
2022-08-30T16:24:00.934Z,24.60
2022-08-30T16:26:28.804Z,24.50
2022-08-30T16:32:49.441Z,24.40
2022-08-30T16:35:16.319Z,24.20
2022-08-30T16:37:43.134Z,24.20
2022-08-30T16:40:11.191Z,24.10
2022-08-30T16:42:38.258Z,24.00
2022-08-30T16:45:10.317Z,23.90
2022-08-30T16:47:37.985Z,23.90
2022-08-30T16:50:05.710Z,23.80
2022-08-30T16:52:32.623Z,23.70
2022-08-30T16:55:01.021Z,23.70
2022-08-30T16:57:28.659Z,23.60
2022-08-30T16:59:55.650Z,23.60
2022-08-30T17:02:23.985Z,23.50
2022-08-30T17:04:53.222Z,23.50
2022-08-30T17:07:22.413Z,23.40
2022-08-30T17:09:49.853Z,23.40
2022-08-30T17:12:16.797Z,23.30
2022-08-30T17:14:43.811Z,23.30
2022-08-30T17:17:10.752Z,23.20
2022-08-30T17:19:42.246Z,23.20
2022-08-30T17:22:13.031Z,23.10
2022-08-30T17:24:40.146Z,23.10
2022-08-30T17:27:07.355Z,23.10
2022-08-30T17:29:34.624Z,23.20
2022-08-30T17:32:03.743Z,23.30
2022-08-30T17:34:31.909Z,23.30
2022-08-30T17:37:00.122Z,23.30
2022-08-30T17:39:27.411Z,23.40
2022-08-30T17:41:55.066Z,23.40
2022-08-30T17:44:25.511Z,23.40
2022-08-30T17:46:53.264Z,23.30
2022-08-30T17:49:21.228Z,23.30
2022-08-30T17:51:56.350Z,23.20
2022-08-30T17:58:52.885Z,23.10
2022-08-30T18:01:20.056Z,22.90
2022-08-30T18:03:48.705Z,22.70
2022-08-30T18:06:15.863Z,22.60
2022-08-30T18:08:43.422Z,22.50
2022-08-30T18:11:10.283Z,22.20
2022-08-30T18:13:37.135Z,22.00
2022-08-30T18:16:04.368Z,21.90
2022-08-30T18:18:32.358Z,21.80
2022-08-30T18:20:59.218Z,21.70
2022-08-30T18:23:27.169Z,21.60
2022-08-30T18:25:58.691Z,21.60
2022-08-30T18:28:26.074Z,21.40
2022-08-30T18:30:53.723Z,21.20
2022-08-30T18:33:20.598Z,21.10
2022-08-30T18:35:48.744Z,21.00
2022-08-30T18:38:15.586Z,20.90
2022-08-30T18:40:42.557Z,20.80
2022-08-30T18:43:10.607Z,20.70
2022-08-30T18:45:38.090Z,20.60
2022-08-30T18:48:05.611Z,20.50
2022-08-30T18:50:32.884Z,20.40
2022-08-30T18:53:00.189Z,20.30
2022-08-30T18:55:27.203Z,20.20
2022-08-30T18:57:54.196Z,20.10
2022-08-30T19:00:21.891Z,20.10
2022-08-30T19:02:48.717Z,20.00
2022-08-30T19:05:16.273Z,19.90
2022-08-30T19:07:44.170Z,19.90
2022-08-30T19:10:12.423Z,19.90
2022-08-30T19:12:39.767Z,19.80
2022-08-30T19:15:10.880Z,19.80
2022-08-30T19:17:39.349Z,19.80
2022-08-30T19:20:08.409Z,19.70
2022-08-30T19:25:24.182Z,19.90
2022-08-30T19:27:51.525Z,20.00
2022-08-30T19:30:24.117Z,20.10
2022-08-30T19:32:55.737Z,20.30
2022-08-30T19:35:22.675Z,20.30
2022-08-30T19:37:49.524Z,20.40
2022-08-30T19:40:17.233Z,20.50
2022-08-30T19:42:46.165Z,20.50
2022-08-30T19:45:14.752Z,20.50
2022-08-30T19:47:41.609Z,20.50
2022-08-30T19:50:08.713Z,20.60
2022-08-30T19:52:36.467Z,20.60
2022-08-30T19:55:04.615Z,20.50
2022-08-30T19:57:31.611Z,21.80
2022-08-30T19:59:59.053Z,20.60
2022-08-30T20:02:26.243Z,20.60
2022-08-30T20:04:54.187Z,20.60
2022-08-30T20:07:25.234Z,20.60
2022-08-30T20:09:54.338Z,20.60
2022-08-30T20:12:21.165Z,20.50
2022-08-30T20:14:48.181Z,20.50
2022-08-30T20:17:15.646Z,20.40
2022-08-30T20:19:42.567Z,20.40
2022-08-30T20:22:09.441Z,20.40
2022-08-30T20:24:33.319Z,19.90
2022-08-30T20:27:08.500Z,20.30
2022-08-30T20:29:35.411Z,20.30
2022-08-30T20:32:03.339Z,20.30
2022-08-30T20:34:30.233Z,20.30
2022-08-30T20:36:57.271Z,20.20
2022-08-30T20:39:24.711Z,20.20
2022-08-30T20:41:51.571Z,20.10
2022-08-30T20:44:18.598Z,20.10
2022-08-30T20:46:46.862Z,20.10
2022-08-30T20:49:13.916Z,20.00
2022-08-30T20:51:40.920Z,20.00
2022-08-30T20:54:07.930Z,19.90
2022-08-30T20:56:35.165Z,19.90
2022-08-30T20:59:03.591Z,19.90
2022-08-30T21:01:35.631Z,19.90
2022-08-30T21:04:05.539Z,19.80
2022-08-30T21:06:37.369Z,19.70
2022-08-30T21:09:07.947Z,19.70
2022-08-30T21:11:35.237Z,19.70
2022-08-30T21:14:02.218Z,19.60
2022-08-30T21:16:30.191Z,19.60
2022-08-30T21:18:57.127Z,19.60
2022-08-30T21:21:25.527Z,19.60
2022-08-30T21:23:53.171Z,19.60
2022-08-30T21:26:20.191Z,19.50
2022-08-30T21:28:48.292Z,19.50
2022-08-30T21:31:17.297Z,19.50
2022-08-30T21:33:44.274Z,19.40
2022-08-30T21:36:29.589Z,19.40
2022-08-30T21:39:00.838Z,19.40
2022-08-30T21:41:28.343Z,19.40
2022-08-30T21:43:57.797Z,19.40
2022-08-30T21:46:25.729Z,19.40
2022-08-30T21:48:52.750Z,19.40
2022-08-30T21:51:19.720Z,19.40
2022-08-30T21:53:46.566Z,19.30
2022-08-30T21:56:21.265Z,19.40
2022-08-30T21:58:48.665Z,19.30
2022-08-30T22:01:18.456Z,19.30
2022-08-30T22:03:45.498Z,19.30
2022-08-30T22:06:12.765Z,19.20
2022-08-30T22:08:41.332Z,19.20
2022-08-30T22:11:12.332Z,19.20
2022-08-30T22:13:40.216Z,19.10
2022-08-30T22:16:07.573Z,19.00
2022-08-30T22:18:34.441Z,18.90
2022-08-30T22:21:02.496Z,18.80
2022-08-30T22:23:30.988Z,18.80
2022-08-30T22:25:58.815Z,18.70
2022-08-30T22:28:26.000Z,18.70
2022-08-30T22:30:53.505Z,18.60
2022-08-30T22:33:20.318Z,18.60
2022-08-30T22:35:47.236Z,18.60
2022-08-30T22:38:14.620Z,18.60
2022-08-30T22:40:48.478Z,18.50
2022-08-30T22:43:15.946Z,18.50
2022-08-30T22:45:42.854Z,18.40
2022-08-30T22:48:09.994Z,18.40
2022-08-30T22:50:37.010Z,18.40
2022-08-30T22:53:04.099Z,18.40
2022-08-30T22:55:30.950Z,18.40
2022-08-30T22:57:57.802Z,18.40
2022-08-30T23:00:24.766Z,18.40
2022-08-30T23:02:52.762Z,18.40
2022-08-30T23:05:21.174Z,18.40
2022-08-30T23:07:48.208Z,18.40
2022-08-30T23:10:15.085Z,18.30
2022-08-30T23:12:41.988Z,18.30
2022-08-30T23:15:12.452Z,18.30
2022-08-30T23:17:39.912Z,18.20
2022-08-30T23:20:07.451Z,18.20
2022-08-30T23:22:34.277Z,18.20
2022-08-30T23:25:19.703Z,18.20
2022-08-30T23:28:05.662Z,18.70
2022-08-30T23:30:51.064Z,18.20
2022-08-30T23:33:36.344Z,18.20
2022-08-30T23:36:26.858Z,18.10
2022-08-30T23:39:12.265Z,18.10
2022-08-30T23:41:57.626Z,18.10
2022-08-30T23:44:43.100Z,18.10
2022-08-30T23:47:28.460Z,17.50
2022-08-30T23:50:17.302Z,18.10
2022-08-30T23:53:02.644Z,18.00
2022-08-30T23:55:47.902Z,18.00
2022-08-30T23:58:33.432Z,18.00
